Des Moines International Airport
Tuesday 8:54 PM
Weather Overcast
Temperature 66°
Dew Point 42°
Feels Like 66°
Relative Humidity 42
%
Visibility 10
mi
Pressure 1018.6
mb
Wind Direction SE
Wind Speed 10
mph
Last Hour Precip 0.00
"
KDSM 050154Z 14009KT 10SM FEW140 BKN200 OVC250 19/06 A3008 RMK AO2 SLP183 T01890056

Terminal Aerodrome Forecast (TAF)

Beginning Flight Rule Present Weather Sky Cover Ceiling Wind Visibility Wind Shear
10/4/22 6:24 PM
VFR
SCT 9000 BKN 15000 15000
ft
SSE (160) 8 >6
sm
0500/0524 16007KT P6SM SCT090 BKN150
10/5/22 1:00 PM
VFR
BKN 11000 11000
ft
WNW (290) 7 >6
sm
FM051800 29006KT P6SM BKN110

Recent Observations

Time Present Weather Temp DP Feels RH% Vsby Pressure Ceiling Direction Speed Gust 1h Precip
8:54PM
VFR
66° 42° 66° 42
%
10
mi
1018.6
mb
20000
ft
SE 10
mph
0.00"
KDSM 050154Z 14009KT 10SM FEW140 BKN200 OVC250 19/06 A3008 RMK AO2 SLP183 T01890056
7:54PM
VFR
68° 43° 68° 40
%
10
mi
1019.0
mb
25000
ft
SE 10
mph
0.00"
KDSM 050054Z 13009KT 10SM SCT160 BKN250 OVC300 20/06 A3009 RMK AO2 SLP186 T02000061
6:54PM
VFR
70° 47° 70° 44
%
10
mi
1019.0
mb
25000
ft
SE 8
mph
0.00"
KDSM 042354Z 14007KT 10SM FEW200 BKN250 OVC300 21/08 A3009 RMK AO2 SLP185 T02110083 10256 20211 55003
5:54PM
VFR
74° 47° 74° 38
%
10
mi
1018.6
mb
25000
ft
SSE 8
mph
0.00"
KDSM 042254Z 15007KT 10SM FEW200 BKN250 OVC300 23/08 A3008 RMK AO2 SLP184 T02330083
4:54PM
VFR
77° 46° 77° 33
%
10
mi
1019.0
mb
30000
ft
S 12
mph
0.00"
KDSM 042154Z 17010KT 10SM FEW200 SCT250 OVC300 25/08 A3009 RMK AO2 SLP186 T02500078
3:54PM
VFR
77° 47° 77° 34
%
10
mi
1019.0
mb
25000
ft
SSE 13
mph
0.00"
KDSM 042054Z 16011KT 10SM FEW200 OVC250 25/08 A3009 RMK AO2 SLP187 T02500083 56020
2:54PM
VFR
76° 47° 76° 36
%
10
mi
1019.6
mb
25000
ft
SE 10
mph
0.00"
KDSM 041954Z 14009KT 10SM OVC250 24/08 A3011 RMK AO2 SLP190 T02440083
1:54PM
VFR
75° 46° 75° 36
%
10
mi
1020.3
mb
25000
ft
S 14
mph
0.00"
KDSM 041854Z 17012KT 10SM OVC250 24/08 A3013 RMK AO2 SLP199 T02390078
12:54PM
VFR
73° 45° 73° 37
%
10
mi
1021.0
mb
25000
ft
S 9
mph
0.00"
KDSM 041754Z 17008KT 10SM OVC250 23/07 A3015 RMK AO2 SLP208 T02280072 10233 20111 58014
11:54AM
VFR
69° 44° 69° 40
%
10
mi
1021.7
mb
25000
ft
S 7
mph
0.00"
KDSM 041654Z 17006KT 10SM OVC250 21/07 A3017 RMK AO2 SLP213 T02060067
10:54AM
VFR
66° 44° 66° 45
%
10
mi
1022.4
mb
25000
ft
SSE 8
mph
0.00"
KDSM 041554Z 16007KT 10SM OVC250 19/07 A3019 RMK AO2 SLP219 T01890067
9:54AM
VFR
59° 45° 59° 60
%
10
mi
1022.7
mb
25000
ft
SSE 8
mph
0.00"
KDSM 041454Z 16007KT 10SM OVC250 15/07 A3020 RMK AO2 SLP223 T01500072 58004
8:54AM
VFR
55° 43° 55° 64
%
10
mi
1022.7
mb
25000
ft
SSE 7
mph
0.00"
KDSM 041354Z 15006KT 10SM OVC250 13/06 A3020 RMK AO2 SLP226 T01280061
7:54AM
VFR
53° 43° 53° 68
%
10
mi
1023.0
mb
None SE 6
mph
0.00"
KDSM 041254Z 13005KT 10SM SCT250 12/06 A3021 RMK AO2 SLP228 T01170061
6:54AM
VFR
53° 43° 53° 68
%
10
mi
1023.0
mb
None ESE 7
mph
0.00"
KDSM 041154Z 12006KT 10SM SCT250 12/06 A3021 RMK AO2 SLP227 T01170061 10150 20117 53004
5:54AM
VFR
54° 43° 54° 66
%
10
mi
1022.7
mb
None SE 8
mph
0.00"
KDSM 041054Z 13007KT 10SM FEW250 12/06 A3020 RMK AO2 SLP223 T01220061
4:54AM
VFR
54° 44° 54° 69
%
10
mi
1022.4
mb
None SSE 6
mph
0.00"
KDSM 040954Z 15005KT 10SM FEW250 12/07 A3019 RMK AO2 SLP221 T01220067
3:54AM
VFR
55° 45° 55° 69
%
10
mi
1022.7
mb
None SE 8
mph
0.00"
KDSM 040854Z 14007KT 10SM SCT250 13/07 A3020 RMK AO2 SLP222 T01280072 58006
2:54AM
VFR
57° 45° 57° 64
%
10
mi
1023.0
mb
None SSE 7
mph
0.00"
KDSM 040754Z 15006KT 10SM FEW250 14/07 A3021 RMK AO2 SLP227 T01390072
1:54AM
VFR
58° 46° 58° 64
%
10
mi
1023.0
mb
None SSE 8
mph
0.00"
KDSM 040654Z 15007KT 10SM FEW250 14/08 A3021 RMK AO2 SLP228 T01440078
Click here to show this page without METARs/TAFs included